createdAt,value
2023-05-25T00:01:35.656Z,13.27
2023-05-25T00:04:05.442Z,12.07
2023-05-25T00:06:37.315Z,10.68
2023-05-25T00:09:05.391Z,11.75
2023-05-25T00:11:33.323Z,10.65
2023-05-25T00:14:01.345Z,16.52
2023-05-25T00:16:29.414Z,11.52
2023-05-25T00:18:58.106Z,13.63
2023-05-25T00:21:27.518Z,10.57
2023-05-25T00:23:55.522Z,13.05
2023-05-25T00:26:23.464Z,16.08
2023-05-25T00:28:51.397Z,15.80
2023-05-25T00:31:19.407Z,16.67
2023-05-25T00:33:47.470Z,16.08
2023-05-25T00:36:15.491Z,12.38
2023-05-25T00:38:44.985Z,12.00
2023-05-25T00:41:13.507Z,14.63
2023-05-25T00:43:41.475Z,13.77
2023-05-25T00:46:11.575Z,14.40
2023-05-25T00:48:40.827Z,14.63
2023-05-25T00:51:08.851Z,13.88
2023-05-25T00:53:38.118Z,15.85
2023-05-25T00:56:16.373Z,14.32
2023-05-25T00:58:47.301Z,14.55
2023-05-25T01:01:17.381Z,17.40
2023-05-25T01:03:53.568Z,20.80
2023-05-25T01:06:23.384Z,12.73
2023-05-25T01:08:56.803Z,17.63
2023-05-25T01:11:29.091Z,19.05
2023-05-25T01:13:59.204Z,13.82
2023-05-25T01:16:27.392Z,14.95
2023-05-25T01:18:55.472Z,15.63
2023-05-25T01:21:29.236Z,13.68
2023-05-25T01:24:03.782Z,19.77
2023-05-25T01:26:36.227Z,15.13
2023-05-25T01:31:34.320Z,13.65
2023-05-25T01:34:02.547Z,14.45
2023-05-25T01:36:33.105Z,16.25
2023-05-25T01:39:01.233Z,15.13
2023-05-25T01:41:29.227Z,14.40
2023-05-25T01:43:57.194Z,16.58
2023-05-25T01:46:33.966Z,17.40
2023-05-25T01:49:10.313Z,17.02
2023-05-25T01:51:47.686Z,16.30
2023-05-25T01:54:23.025Z,15.65
2023-05-25T01:56:53.467Z,18.20
2023-05-25T01:59:23.160Z,16.25
2023-05-25T02:01:53.573Z,16.67
2023-05-25T02:04:23.132Z,19.20
2023-05-25T02:06:53.062Z,18.13
2023-05-25T02:09:21.254Z,14.07
2023-05-25T02:11:49.951Z,14.35
2023-05-25T02:14:18.330Z,15.48
2023-05-25T02:16:46.951Z,17.25
2023-05-25T02:19:15.145Z,13.93
2023-05-25T02:21:43.299Z,15.95
2023-05-25T02:24:12.689Z,17.30
2023-05-25T02:26:40.759Z,16.90
2023-05-25T02:29:08.734Z,14.13
2023-05-25T02:31:36.747Z,14.98
2023-05-25T02:34:04.757Z,13.65
2023-05-25T02:36:32.777Z,16.58
2023-05-25T02:39:00.740Z,17.67
2023-05-25T02:41:30.098Z,17.45
2023-05-25T02:43:59.272Z,11.68
2023-05-25T02:46:27.289Z,14.43
2023-05-25T02:48:55.366Z,18.33
2023-05-25T02:51:23.261Z,12.02
2023-05-25T02:53:51.822Z,19.80
2023-05-25T02:56:19.777Z,16.20
2023-05-25T02:58:49.060Z,13.60
2023-05-25T03:01:18.441Z,19.83
2023-05-25T03:03:47.387Z,18.23
2023-05-25T03:06:16.044Z,17.77
2023-05-25T03:08:44.037Z,16.67
2023-05-25T03:11:12.016Z,17.85
2023-05-25T03:13:40.016Z,15.10
2023-05-25T03:16:09.687Z,13.98
2023-05-25T03:18:37.665Z,16.35
2023-05-25T03:21:05.858Z,15.27
2023-05-25T03:23:33.888Z,16.75
2023-05-25T03:26:01.846Z,20.27
2023-05-25T03:28:29.808Z,18.42
2023-05-25T03:30:57.794Z,13.75
2023-05-25T03:33:27.069Z,21.52
2023-05-25T03:35:55.001Z,19.60
2023-05-25T03:38:23.145Z,18.75
2023-05-25T03:40:51.154Z,18.60
2023-05-25T03:43:19.096Z,20.52
2023-05-25T03:45:47.360Z,16.75
2023-05-25T03:48:15.635Z,15.75
2023-05-25T03:50:44.937Z,16.98
2023-05-25T03:53:12.877Z,17.63
2023-05-25T03:55:41.902Z,14.32
2023-05-25T03:58:10.050Z,14.60
2023-05-25T04:00:38.239Z,16.90
2023-05-25T04:03:07.040Z,12.85
2023-05-25T04:05:35.137Z,17.17
2023-05-25T04:08:04.653Z,19.80
2023-05-25T04:10:32.619Z,15.55
2023-05-25T04:13:00.853Z,19.05
2023-05-25T04:15:28.838Z,16.60
2023-05-25T04:17:59.463Z,15.18
2023-05-25T04:20:27.462Z,20.70
2023-05-25T04:22:55.622Z,17.52
2023-05-25T04:25:27.211Z,23.25
2023-05-25T04:27:56.977Z,25.48
2023-05-25T04:30:25.007Z,18.63
2023-05-25T04:32:53.044Z,18.92
2023-05-25T04:35:21.163Z,22.08
2023-05-25T04:37:49.304Z,19.58
2023-05-25T04:40:17.295Z,19.98
2023-05-25T04:42:48.012Z,18.08
2023-05-25T04:45:17.284Z,22.83
2023-05-25T04:47:45.334Z,18.88
2023-05-25T04:50:13.655Z,20.40
2023-05-25T04:52:41.559Z,21.15
2023-05-25T04:55:10.307Z,21.80
2023-05-25T04:57:38.366Z,21.10
2023-05-25T05:00:10.815Z,18.40
2023-05-25T05:05:07.683Z,20.40
2023-05-25T05:07:36.036Z,23.67
2023-05-25T05:10:04.506Z,27.83
2023-05-25T05:12:32.516Z,20.23
2023-05-25T05:15:00.466Z,31.95
2023-05-25T05:17:30.783Z,24.70
2023-05-25T05:19:58.967Z,21.10
2023-05-25T05:22:27.228Z,24.30
2023-05-25T05:24:55.239Z,23.23
2023-05-25T05:27:23.265Z,23.35
2023-05-25T05:29:51.249Z,21.67
2023-05-25T05:32:19.239Z,23.80
2023-05-25T05:34:48.651Z,23.88
2023-05-25T05:37:16.718Z,20.05
2023-05-25T05:39:44.637Z,24.30
2023-05-25T05:42:12.532Z,22.65
2023-05-25T05:44:40.798Z,22.10
2023-05-25T05:47:08.844Z,25.80
2023-05-25T05:49:38.209Z,24.95
2023-05-25T05:52:09.683Z,19.73
2023-05-25T05:54:37.702Z,21.35
2023-05-25T05:57:06.543Z,23.40
2023-05-25T05:59:35.390Z,18.50
2023-05-25T06:02:03.481Z,17.60
2023-05-25T06:04:31.451Z,19.13
2023-05-25T06:06:59.490Z,17.80
2023-05-25T06:09:28.802Z,15.18
2023-05-25T06:11:56.765Z,15.05
2023-05-25T06:14:26.761Z,17.52
2023-05-25T06:16:56.207Z,14.73
2023-05-25T06:19:24.201Z,16.45
2023-05-25T06:21:52.149Z,15.98
2023-05-25T06:24:20.098Z,16.90
2023-05-25T06:26:49.475Z,14.15
2023-05-25T06:29:17.746Z,19.20
2023-05-25T06:31:45.926Z,17.83
2023-05-25T06:34:14.013Z,14.25
2023-05-25T06:36:42.186Z,15.88
2023-05-25T06:39:10.184Z,21.63
2023-05-25T06:41:40.500Z,14.77
2023-05-25T06:44:09.880Z,17.55
2023-05-25T06:46:39.286Z,19.38
2023-05-25T06:49:07.650Z,18.27
2023-05-25T06:51:35.594Z,21.45
2023-05-25T06:54:03.543Z,15.32
2023-05-25T06:56:31.507Z,16.48
2023-05-25T06:58:59.464Z,15.85
2023-05-25T07:01:28.911Z,16.55
2023-05-25T07:03:56.921Z,15.43
2023-05-25T07:06:24.898Z,12.60
2023-05-25T07:08:52.891Z,12.57
2023-05-25T07:11:22.061Z,15.25
2023-05-25T07:13:50.101Z,14.60
2023-05-25T07:16:18.084Z,12.98
2023-05-25T07:18:47.815Z,12.65
2023-05-25T07:21:15.811Z,12.63
2023-05-25T07:23:43.728Z,12.07
2023-05-25T07:26:11.741Z,11.93
2023-05-25T07:28:39.710Z,12.65
2023-05-25T07:31:07.701Z,12.27
2023-05-25T07:33:35.717Z,11.82
2023-05-25T07:36:05.465Z,11.30
2023-05-25T07:38:33.434Z,10.55
2023-05-25T07:41:01.399Z,13.20
2023-05-25T07:43:29.390Z,14.30
2023-05-25T07:45:57.396Z,14.70
2023-05-25T07:48:25.420Z,11.43
2023-05-25T07:50:53.416Z,12.52
2023-05-25T07:53:22.730Z,14.52
2023-05-25T07:55:50.860Z,13.27
2023-05-25T07:58:18.935Z,10.70
2023-05-25T08:00:46.879Z,12.18
2023-05-25T08:03:14.880Z,10.98
2023-05-25T08:05:44.255Z,13.82
2023-05-25T08:08:12.446Z,12.38
2023-05-25T08:10:41.851Z,13.45
2023-05-25T08:13:09.763Z,11.10
2023-05-25T08:15:37.763Z,11.00
2023-05-25T08:18:06.640Z,11.88
2023-05-25T08:20:34.944Z,10.57
2023-05-25T08:23:03.376Z,11.52
2023-05-25T08:25:31.353Z,11.50
2023-05-25T08:28:00.787Z,11.55
2023-05-25T08:30:29.194Z,13.07
2023-05-25T08:32:57.258Z,12.45
2023-05-25T08:35:25.264Z,9.65
2023-05-25T08:37:53.235Z,12.93
2023-05-25T08:40:24.419Z,9.00
2023-05-25T08:42:52.344Z,11.95
2023-05-25T08:45:34.393Z,10.57
2023-05-25T08:48:09.947Z,11.05
2023-05-25T08:50:41.292Z,9.68
2023-05-25T08:53:11.751Z,9.93
2023-05-25T08:55:43.118Z,10.63
2023-05-25T08:58:17.816Z,8.43
2023-05-25T09:00:54.584Z,8.20
2023-05-25T09:03:25.483Z,11.40
2023-05-25T09:05:53.659Z,11.75
2023-05-25T09:08:22.856Z,8.93
2023-05-25T09:10:52.964Z,12.23
2023-05-25T09:13:22.871Z,9.73
2023-05-25T09:15:53.201Z,8.32
2023-05-25T09:18:21.378Z,8.38
2023-05-25T09:20:49.940Z,9.07
2023-05-25T09:23:18.651Z,8.73
2023-05-25T09:25:50.706Z,11.65
2023-05-25T09:28:26.826Z,8.68
2023-05-25T09:30:57.526Z,11.30
2023-05-25T09:33:25.675Z,10.80
2023-05-25T09:35:53.798Z,6.85
2023-05-25T09:38:22.480Z,7.82
2023-05-25T09:40:50.850Z,6.88
2023-05-25T09:43:32.370Z,11.40
2023-05-25T09:46:08.435Z,7.75
2023-05-25T09:48:36.911Z,8.45
2023-05-25T09:51:05.249Z,7.28
2023-05-25T09:53:33.380Z,6.13
2023-05-25T09:56:03.959Z,8.25
2023-05-25T09:58:32.307Z,8.65
2023-05-25T10:01:00.952Z,10.05
2023-05-25T10:03:30.677Z,7.15
2023-05-25T10:05:58.928Z,8.65
2023-05-25T10:11:17.774Z,8.70
2023-05-25T10:13:47.318Z,10.95
2023-05-25T10:16:18.386Z,8.32
2023-05-25T10:18:52.961Z,9.30
2023-05-25T10:21:23.714Z,8.63
2023-05-25T10:23:55.103Z,11.82
2023-05-25T10:26:27.339Z,7.20
2023-05-25T10:31:29.981Z,8.73
2023-05-25T10:34:00.413Z,10.57
2023-05-25T10:36:30.742Z,9.93
2023-05-25T10:38:59.570Z,10.93
2023-05-25T10:41:27.872Z,8.50
2023-05-25T10:43:55.999Z,10.32
2023-05-25T10:46:24.099Z,8.93
2023-05-25T10:48:52.863Z,7.20
2023-05-25T10:51:23.506Z,11.00
2023-05-25T10:54:01.831Z,11.68
2023-05-25T10:56:29.832Z,13.40
2023-05-25T10:58:58.116Z,8.40
2023-05-25T11:01:26.889Z,8.32
2023-05-25T11:04:14.676Z,7.30
2023-05-25T11:07:19.591Z,8.73
2023-05-25T11:09:59.563Z,9.85
2023-05-25T11:12:28.027Z,10.10
2023-05-25T11:15:16.263Z,11.38
2023-05-25T11:17:59.074Z,11.85
2023-05-25T11:20:30.030Z,10.05
2023-05-25T11:23:21.008Z,11.38
2023-05-25T11:25:50.484Z,8.43
2023-05-25T11:28:18.570Z,12.00
2023-05-25T11:30:46.687Z,10.65
2023-05-25T11:33:16.941Z,9.43
2023-05-25T11:35:48.888Z,11.40
2023-05-25T11:38:17.994Z,9.40
2023-05-25T11:40:45.977Z,11.95
2023-05-25T11:43:16.359Z,14.27
2023-05-25T11:45:44.494Z,14.32
2023-05-25T11:48:16.068Z,11.05
2023-05-25T11:50:44.375Z,12.35
2023-05-25T11:53:12.699Z,11.07
2023-05-25T11:55:42.984Z,11.15
2023-05-25T11:58:11.009Z,9.07
2023-05-25T12:00:40.429Z,10.23
2023-05-25T12:03:10.437Z,9.32
2023-05-25T12:05:39.086Z,12.48
2023-05-25T12:08:07.282Z,11.50
2023-05-25T12:10:35.287Z,8.95
2023-05-25T12:13:04.667Z,10.48
2023-05-25T12:15:32.821Z,10.27
2023-05-25T12:18:02.448Z,11.40
2023-05-25T12:20:30.593Z,11.70
2023-05-25T12:22:59.339Z,11.27
2023-05-25T12:25:38.641Z,9.95
2023-05-25T12:28:15.795Z,7.97
2023-05-25T12:30:43.787Z,11.07
2023-05-25T12:33:14.831Z,10.35
2023-05-25T12:35:47.535Z,10.40
2023-05-25T12:38:17.750Z,10.18
2023-05-25T12:40:46.393Z,8.90
2023-05-25T12:43:16.963Z,7.25
2023-05-25T12:45:45.430Z,6.85
2023-05-25T12:48:14.841Z,10.27
2023-05-25T12:50:58.057Z,9.02
2023-05-25T12:53:27.156Z,9.95
2023-05-25T12:56:02.824Z,8.10
2023-05-25T12:58:30.834Z,8.15
2023-05-25T13:00:58.909Z,9.32
2023-05-25T13:03:28.290Z,11.25
2023-05-25T13:06:02.187Z,7.30
2023-05-25T13:08:30.519Z,12.00
2023-05-25T13:10:58.870Z,10.27
2023-05-25T13:13:26.924Z,7.80
2023-05-25T13:15:54.940Z,9.30
2023-05-25T13:18:22.970Z,8.35
2023-05-25T13:20:55.999Z,10.48
2023-05-25T13:23:24.990Z,9.63
2023-05-25T13:25:52.902Z,8.75
2023-05-25T13:28:20.980Z,12.73
2023-05-25T13:30:48.918Z,8.88
2023-05-25T13:33:16.949Z,9.35
2023-05-25T13:35:58.123Z,10.15
2023-05-25T13:38:29.578Z,9.93
2023-05-25T13:40:57.821Z,11.70
2023-05-25T13:43:25.799Z,15.77
2023-05-25T13:45:53.817Z,11.52
2023-05-25T13:48:21.969Z,10.77
2023-05-25T13:50:49.994Z,7.35
2023-05-25T13:53:18.105Z,10.05
2023-05-25T13:55:47.641Z,8.38
2023-05-25T13:58:15.646Z,11.48
2023-05-25T14:00:44.046Z,14.50
2023-05-25T14:03:12.277Z,10.35
2023-05-25T14:05:40.923Z,9.85
2023-05-25T14:08:09.238Z,10.68
2023-05-25T14:10:38.948Z,12.48
2023-05-25T14:13:08.289Z,12.80
2023-05-25T14:15:36.410Z,9.50
2023-05-25T14:18:04.755Z,12.20
2023-05-25T14:20:37.037Z,11.95
2023-05-25T14:23:05.111Z,11.30
2023-05-25T14:25:33.081Z,10.77
2023-05-25T14:28:01.086Z,13.07
2023-05-25T14:30:30.367Z,10.73
2023-05-25T14:32:58.373Z,13.90
2023-05-25T14:35:26.311Z,13.55
2023-05-25T14:37:54.311Z,14.10
2023-05-25T14:40:22.377Z,15.63
2023-05-25T14:42:55.336Z,15.85
2023-05-25T14:45:23.357Z,12.07
2023-05-25T14:48:03.967Z,12.73
2023-05-25T14:50:36.065Z,13.50
2023-05-25T14:53:03.996Z,12.80
2023-05-25T14:55:31.938Z,14.85
2023-05-25T14:57:59.982Z,13.38
2023-05-25T15:00:27.990Z,15.90
2023-05-25T15:02:57.425Z,11.55
2023-05-25T15:05:25.435Z,11.27
2023-05-25T15:07:53.437Z,13.23
2023-05-25T15:10:21.515Z,13.88
2023-05-25T15:12:49.534Z,13.18
2023-05-25T15:15:17.650Z,17.40
2023-05-25T15:17:45.634Z,18.65
2023-05-25T15:20:15.010Z,15.57
2023-05-25T15:22:43.026Z,15.30
2023-05-25T15:25:11.041Z,13.63
2023-05-25T15:27:38.998Z,16.67
2023-05-25T15:30:08.380Z,21.38
2023-05-25T15:32:36.434Z,16.67
2023-05-25T15:35:04.681Z,22.13
2023-05-25T15:37:33.940Z,16.65
2023-05-25T15:40:01.871Z,15.60
2023-05-25T15:42:29.867Z,15.13
2023-05-25T15:44:57.810Z,20.17
2023-05-25T15:47:25.866Z,16.50
2023-05-25T15:49:53.825Z,14.13
2023-05-25T15:52:21.924Z,17.88
2023-05-25T15:54:51.339Z,13.30
2023-05-25T15:57:19.331Z,15.43
2023-05-25T15:59:48.013Z,15.75
2023-05-25T16:02:16.096Z,15.68
2023-05-25T16:04:44.326Z,14.80
2023-05-25T16:07:14.115Z,16.45
2023-05-25T16:09:42.040Z,14.27
2023-05-25T16:12:11.360Z,15.70
2023-05-25T16:14:39.533Z,14.43
2023-05-25T16:17:07.642Z,18.85
2023-05-25T16:19:36.023Z,14.00
2023-05-25T16:22:03.974Z,13.77
2023-05-25T16:24:31.942Z,17.95
2023-05-25T16:26:59.900Z,17.40
2023-05-25T16:29:29.323Z,17.13
2023-05-25T16:31:57.512Z,18.33
2023-05-25T16:34:25.818Z,15.45
2023-05-25T16:36:53.758Z,17.20
2023-05-25T16:39:21.714Z,13.70
2023-05-25T16:41:50.880Z,14.80
2023-05-25T16:44:19.073Z,17.00
2023-05-25T16:46:48.676Z,14.98
2023-05-25T16:49:16.641Z,18.60
2023-05-25T16:51:44.628Z,15.77
2023-05-25T16:54:12.595Z,14.32
2023-05-25T16:56:40.873Z,17.92
2023-05-25T16:59:08.880Z,15.23
2023-05-25T17:01:36.891Z,17.67
2023-05-25T17:04:06.435Z,18.75
2023-05-25T17:06:34.909Z,19.70
2023-05-25T17:09:02.981Z,15.02
2023-05-25T17:11:30.964Z,14.55
2023-05-25T17:13:58.894Z,16.15
2023-05-25T17:16:26.892Z,17.08
2023-05-25T17:18:54.849Z,14.60
2023-05-25T17:21:24.156Z,19.23
2023-05-25T17:23:52.090Z,16.25
2023-05-25T17:26:20.020Z,12.98
2023-05-25T17:28:48.860Z,14.55
2023-05-25T17:31:17.102Z,19.13
2023-05-25T17:33:45.106Z,18.77
2023-05-25T17:36:12.990Z,15.15
2023-05-25T17:38:43.545Z,15.90
2023-05-25T17:41:11.531Z,18.83
2023-05-25T17:43:39.441Z,15.60
2023-05-25T17:46:07.597Z,16.23
2023-05-25T17:48:36.572Z,17.05
2023-05-25T17:51:05.009Z,13.65
2023-05-25T17:53:32.919Z,16.45
2023-05-25T17:56:02.156Z,16.10
2023-05-25T17:58:30.050Z,17.48
2023-05-25T18:00:58.034Z,15.57
2023-05-25T18:03:26.504Z,14.18
2023-05-25T18:05:54.652Z,16.77
2023-05-25T18:08:22.582Z,17.08
2023-05-25T18:10:52.834Z,16.15
2023-05-25T18:13:22.213Z,15.20
2023-05-25T18:15:50.124Z,18.98
2023-05-25T18:18:20.751Z,14.55
2023-05-25T18:20:48.679Z,21.08
2023-05-25T18:23:16.658Z,15.23
2023-05-25T18:25:44.848Z,17.55
2023-05-25T18:28:15.005Z,16.13
2023-05-25T18:30:45.120Z,20.33
2023-05-25T18:33:13.159Z,14.50
2023-05-25T18:35:41.423Z,16.40
2023-05-25T18:38:09.371Z,19.27
2023-05-25T18:40:37.252Z,13.77
2023-05-25T18:43:05.686Z,16.98
2023-05-25T18:45:33.623Z,18.85
2023-05-25T18:48:07.398Z,20.45
2023-05-25T18:50:37.656Z,16.77
2023-05-25T18:53:07.709Z,17.02
2023-05-25T18:55:36.044Z,16.23
2023-05-25T18:58:04.444Z,20.35
2023-05-25T19:00:32.476Z,16.90
2023-05-25T19:03:02.150Z,18.15
2023-05-25T19:05:30.201Z,22.35
2023-05-25T19:08:00.012Z,20.98
2023-05-25T19:10:28.754Z,19.67
2023-05-25T19:12:56.712Z,18.60
2023-05-25T19:15:24.677Z,22.45
2023-05-25T19:17:52.790Z,16.25
2023-05-25T19:20:22.254Z,22.70
2023-05-25T19:22:50.263Z,19.58
2023-05-25T19:25:19.797Z,16.20
2023-05-25T19:27:47.799Z,21.30
2023-05-25T19:30:15.969Z,22.85
2023-05-25T19:32:44.352Z,18.25
2023-05-25T19:35:12.894Z,19.52
2023-05-25T19:37:42.270Z,23.65
2023-05-25T19:40:11.186Z,21.77
2023-05-25T19:42:39.230Z,20.33
2023-05-25T19:45:07.996Z,20.15
2023-05-25T19:47:36.441Z,24.48
2023-05-25T19:50:04.751Z,20.05
2023-05-25T19:52:32.935Z,23.05
2023-05-25T19:55:02.434Z,21.63
2023-05-25T19:57:30.451Z,18.27
2023-05-25T19:59:58.428Z,23.75
2023-05-25T20:02:26.446Z,18.63
2023-05-25T20:04:54.587Z,24.45
2023-05-25T20:07:23.767Z,22.23
2023-05-25T20:09:51.769Z,25.20
2023-05-25T20:12:21.800Z,21.95
2023-05-25T20:14:49.864Z,18.95
2023-05-25T20:17:17.884Z,22.08
2023-05-25T20:19:45.850Z,24.10
2023-05-25T20:22:13.942Z,19.95
2023-05-25T20:24:42.096Z,25.00
2023-05-25T20:27:10.056Z,24.75
2023-05-25T20:29:39.421Z,25.73
2023-05-25T20:32:07.499Z,25.42
2023-05-25T20:34:36.030Z,23.55
2023-05-25T20:37:04.041Z,23.30
2023-05-25T20:39:32.024Z,24.83
2023-05-25T20:42:01.617Z,24.02
2023-05-25T20:44:31.821Z,20.90
2023-05-25T20:47:01.219Z,21.70
2023-05-25T20:49:29.167Z,25.58
2023-05-25T20:51:57.095Z,21.65
2023-05-25T20:54:25.082Z,23.38
2023-05-25T20:56:53.430Z,20.98
2023-05-25T20:59:21.998Z,26.27
2023-05-25T21:01:50.021Z,22.83
2023-05-25T21:04:19.336Z,23.88
2023-05-25T21:06:47.319Z,19.95
2023-05-25T21:09:15.461Z,28.92
2023-05-25T21:11:43.413Z,24.30
2023-05-25T21:14:11.370Z,20.77
2023-05-25T21:16:39.340Z,21.77
2023-05-25T21:19:07.525Z,23.35
2023-05-25T21:21:36.852Z,22.67
2023-05-25T21:24:05.364Z,25.67
2023-05-25T21:26:33.324Z,24.15
2023-05-25T21:29:01.288Z,24.92
2023-05-25T21:31:29.348Z,22.48
2023-05-25T21:33:58.296Z,30.00
2023-05-25T21:36:27.893Z,26.48
2023-05-25T21:38:57.849Z,26.73
2023-05-25T21:41:26.490Z,24.33
2023-05-25T21:43:54.570Z,21.83
2023-05-25T21:46:22.565Z,23.00
2023-05-25T21:48:50.580Z,23.42
2023-05-25T21:51:18.575Z,20.38
2023-05-25T21:53:46.461Z,24.90
2023-05-25T21:56:15.842Z,35.25
2023-05-25T21:58:43.829Z,23.80
2023-05-25T22:01:11.959Z,19.90
2023-05-25T22:03:40.052Z,26.30
2023-05-25T22:06:08.289Z,23.70
2023-05-25T22:08:36.668Z,28.70
2023-05-25T22:11:04.657Z,26.48
2023-05-25T22:13:34.117Z,27.25
2023-05-25T22:16:02.149Z,23.70
2023-05-25T22:18:30.182Z,27.42
2023-05-25T22:20:58.198Z,29.30
2023-05-25T22:23:26.942Z,26.75
2023-05-25T22:25:55.135Z,26.80
2023-05-25T22:28:23.147Z,24.15
2023-05-25T22:30:52.500Z,27.40
2023-05-25T22:33:20.577Z,20.33
2023-05-25T22:35:48.737Z,27.33
2023-05-25T22:38:16.757Z,26.77
2023-05-25T22:40:47.421Z,21.77
2023-05-25T22:43:15.497Z,23.75
2023-05-25T22:45:43.978Z,26.15
2023-05-25T22:48:13.594Z,25.30
2023-05-25T22:50:41.716Z,25.23
2023-05-25T22:53:09.700Z,25.88
2023-05-25T22:55:37.628Z,26.17
2023-05-25T22:58:05.605Z,26.25
2023-05-25T23:00:33.832Z,26.75
2023-05-25T23:03:04.102Z,22.80
2023-05-25T23:05:33.917Z,30.48
2023-05-25T23:08:01.858Z,26.15
2023-05-25T23:10:29.755Z,24.50
2023-05-25T23:12:57.766Z,28.33
2023-05-25T23:15:25.719Z,28.27
2023-05-25T23:17:53.718Z,27.20
2023-05-25T23:20:21.763Z,25.02
2023-05-25T23:22:51.166Z,26.15
2023-05-25T23:25:19.216Z,26.75
2023-05-25T23:27:47.240Z,21.50
2023-05-25T23:30:15.310Z,24.88
2023-05-25T23:32:43.511Z,21.60
2023-05-25T23:35:11.492Z,29.83
2023-05-25T23:37:39.460Z,25.70
2023-05-25T23:40:09.734Z,25.77
2023-05-25T23:42:39.673Z,25.85
2023-05-25T23:45:09.341Z,30.70
2023-05-25T23:47:37.311Z,28.73
2023-05-25T23:50:05.658Z,22.15
2023-05-25T23:52:33.665Z,24.02
2023-05-25T23:55:01.563Z,23.27
2023-05-25T23:57:31.015Z,28.70
2023-05-25T23:59:59.240Z,28.40
